EIDW 200030Z 19009KT 160V230 9999 FEW015 BKN210 12/07 Q1015 NOSIG EIDW 200000Z 20010KT 160V230 9999 FEW009 BKN210 11/07 Q1016 NOSIG EIDW 192330Z 20007KT 150V240 9999 FEW009 BKN210 11/07 Q1016 NOSIG EIDW 192300Z 20006KT 160V240 9999 FEW009 SCT200 12/07 Q1016 NOSIG EIDW 192230Z 20009KT 170V230 9999 FEW009 SCT180 12/07 Q1016 NOSIG EIDW 192200Z 18004KT 120V250 9999 FEW009 BKN180 12/07 Q1016 NOSIG EIDW 192130Z 19007KT 160V220 9999 FEW010 BKN180 12/07 Q1016 NOSIG EIDW 192100Z 18006KT 130V250 9999 FEW015 BKN170 13/07 Q1016 NOSIG EIDW 192030Z 19009KT 160V230 9999 FEW015 SCT150 BKN200 13/07 Q1016 NOSIG EIDW 192000Z 20012KT 160V240 9999 FEW022 SCT150 BKN210 13/06 Q1016 NOSIG EIDW 191930Z 19011G21KT 160V220 9999 FEW025 SCT150 BKN240 14/06 Q1016 NOSIG EIDW 191900Z 20012KT 150V250 9999 FEW025 BKN150 14/06 Q1016 NOSIG EIDW 191830Z 21012KT 160V250 9999 FEW025 BKN250 15/06 Q1015 NOSIG EIDW 191800Z 20015KT 170V250 9999 FEW025 SCT050 15/06 Q1015 NOSIG EIDW 191730Z 20014KT 160V220 9999 FEW022 SCT045 16/06 Q1015 NOSIG EIDW 191700Z 20015KT 160V230 9999 FEW022 SCT045 16/06 Q1015 NOSIG EIDW 191630Z 20014G24KT 170V260 9999 FEW022 SCT045 16/06 Q1015 NOSIG EIDW 191600Z 20014KT 160V250 9999 FEW022 SCT045 17/07 Q1015 NOSIG EIDW 191530Z 21013KT 170V250 9999 FEW022 SCT044 17/07 Q1015 NOSIG EIDW 191500Z 20014G24KT 150V250 9999 FEW020 SCT042 17/06 Q1015 NOSIG EIDW 191430Z 19013KT 150V240 9999 FEW023 SCT042 17/08 Q1015 NOSIG EIDW 191400Z 21014KT 170V260 9999 FEW022 SCT040 17/06 Q1015 NOSIG EIDW 191330Z 20014KT 150V230 9999 FEW020 SCT037 17/07 Q1015 NOSIG EIDW 191300Z 20013G26KT 170V240 9999 FEW018 SCT035 BKN250 16/07 Q1015 NOSIG EIDW 191230Z 19012KT 150V240 9999 FEW018 SCT035 BKN250 17/06 Q1015 NOSIG EIDW 191200Z 22009KT 180V280 9999 FEW018 SCT035 BKN250 16/08 Q1015 WS RWY28L NOSIG EIDW 191130Z 22008KT 180V260 9999 FEW018 SCT033 BKN250 16/07 Q1015 WS RWY28L NOSIG EIDW 191100Z 21013KT 170V250 9999 FEW018 SCT033 15/07 Q1015 WS RWY28L NOSIG EIDW 191030Z 23009KT 130V270 9999 FEW020 SCT033 14/06 Q1016 WS RWY28L NOSIG EIDW 191000Z 21012KT 160V260 9999 FEW020 SCT033 14/07 Q1016 NOSIG EIDW 190930Z 23010KT 150V270 9999 FEW020 14/06 Q1016 NOSIG EIDW 190900Z 22008KT 170V270 9999 FEW020 14/06 Q1016 NOSIG EIDW 190830Z 22010KT 180V250 9999 FEW016 13/06 Q1015 NOSIG EIDW 190800Z 21011KT 160V250 9999 FEW016 12/07 Q1015 NOSIG EIDW 190730Z 22009KT 170V270 9999 FEW016 12/07 Q1015 NOSIG EIDW 190700Z 21010KT 170V240 9999 FEW016 11/06 Q1015 NOSIG EIDW 190630Z 20008KT 150V250 9999 FEW014 10/06 Q1015 NOSIG EIDW 190600Z 20006KT 150V230 9999 FEW014 09/06 Q1015 NOSIG EIDW 190530Z 20006KT 140V230 9999 FEW015 08/06 Q1015 NOSIG EIDW 190500Z 20006KT 170V230 9999 FEW015 07/05 Q1014 NOSIG EIDW 190430Z 20007KT 170V230 CAVOK 07/05 Q1014 NOSIG EIDW 190400Z 20006KT 9999 FEW010 08/05 Q1014 NOSIG EIDW 190330Z 20006KT CAVOK 08/05 Q1014 NOSIG EIDW 190300Z 21007KT 180V250 9999 FEW010 08/05 Q1013 NOSIG EIDW 190230Z 22006KT 9999 FEW010 08/06 Q1013 NOSIG EIDW 190200Z 22007KT 170V250 9999 FEW010 08/06 Q1013 NOSIG EIDW 190130Z 23007KT 190V280 9999 FEW010 09/07 Q1012 NOSIG EIDW 190100Z 24007KT 200V280 9999 FEW010 09/07 Q1012 NOSIG EIDW 190030Z 24008KT 210V280 9999 FEW010 09/07 Q1012 NOSIG EIDW 190000Z 24009KT 200V060 9999 FEW010 10/07 Q1011 NOSIG EIDW 182330Z 24010G20KT 190V280 9999 FEW010 11/07 Q1011 NOSIG EIDW 182300Z 22012G23KT 180V250 9999 FEW010 BKN036 11/08 Q1011 NOSIG EIDW 182230Z 21011KT 190V250 9999 FEW010 BKN035 11/08 Q1010 NOSIG EIDW 182200Z 20011KT 170V240 9999 FEW010 12/08 Q1010 NOSIG EIDW 182130Z 18010KT 140V230 9999 FEW010 FEW018CB BKN048 12/08 Q1010 NOSIG EIDW 182100Z 18010KT 150V220 9999 FEW010 FEW018CB 11/08 Q1010 NOSIG EIDW 182030Z 18011KT 140V220 9999 FEW010 FEW018CB SCT130 12/08 Q1009 NOSIG EIDW 182000Z 18010KT 140V220 9999 FEW008 SCT018CB BKN080 12/09 Q1009 NOSIG EIDW 181930Z 19011KT 150V210 9999 -SHRA FEW014 SCT018CB BKN060 12/09 Q1009 NOSIG EIDW 181900Z 17015G26KT 8000 -SHRA SCT018CB SCT030 BKN038 12/10 Q1008 NOSIG EIDW 181830Z 16017G28KT 140V200 9999 -SHRA SCT018CB SCT026 BKN043 14/09 Q1008 TEMPO 4000 SHRA EIDW 181800Z 16017G29KT 9999 FEW018CB SCT031 BKN060 15/08 Q1008 NOSIG EIDW 181730Z 16018KT 120V190 9999 FEW018CB SCT032 BKN050 15/09 Q1009 NOSIG EIDW 181700Z 16020KT 120V180 9999 FEW018CB SCT033 BKN070 16/09 Q1009 NOSIG EIDW 181630Z 16016KT 120V190 9999 FEW014 FEW018CB SCT029 15/09 Q1009 NOSIG EIDW 181600Z 16018KT 9999 FEW012 FEW018CB SCT027 16/09 Q1010 NOSIG EIDW 181530Z 16019KT 9999 FEW016 FEW018CB SCT034 15/09 Q1010 NOSIG EIDW 181500Z 16021G31KT 130V190 9999 FEW008 FEW018CB SCT029 15/09 Q1010 NOSIG EIDW 181430Z 15017G29KT 9999 FEW008 FEW018CB SCT035 15/10 Q1011 NOSIG EIDW 181400Z 14015KT 100V160 9999 FEW008 FEW018CB SCT033 16/10 Q1011 NOSIG EIDW 181330Z 16015G26KT 140V200 9999 FEW007 FEW018CB SCT034 15/09 Q1012 NOSIG EIDW 181300Z 17018KT 120V200 9999 -SHRA FEW007 FEW018CB SCT024 15/10 Q1012 NOSIG

METAR Messwerte "DUBLIN AIRPORT" EIDW

Zurück zur Übersicht

Ortsname
Ländercode / m ü. NN
Zeit Temperatur Taupunkt Rel.
Luftfeuchte
Luftdruck:
Altimeter
NN
Station
Wind in Beaufort
(Knoten)
Sichtweite
(Meter)
Wolken
(Meter über Grund)
Wettererscheinung
DUBLIN AIRPORT
IE 75
Fr 20.05. 02:3012771 %1015
1015
1006
S 3 (9)
SSO - SW
>= 10000Stark bewölkt (6400)
Leicht bewölkt (460)
 
DUBLIN AIRPORT
IE 75
Fr 20.05. 02:0011776 %1016
1016
1007
SSW 3 (10)
SSO - SW
>= 10000Stark bewölkt (6400)
Leicht bewölkt (270)
 
DUBLIN AIRPORT
IE 75
Fr 20.05. 01:3011776 %1016
1016
1007
SSW 3 (7)
SSO - WSW
>= 10000Stark bewölkt (6400)
Leicht bewölkt (270)
 
DUBLIN AIRPORT
IE 75
Fr 20.05. 01:0012771 %1016
1016
1007
SSW 2 (6)
SSO - WSW
>= 10000Wolkig (6100)
Leicht bewölkt (270)
 
DUBLIN AIRPORT
IE 75
Fr 20.05. 00:3012771 %1016
1016
1007
SSW 3 (9)
S - SW
>= 10000Wolkig (5500)
Leicht bewölkt (270)
 
DUBLIN AIRPORT
IE 75
Fr 20.05. 00:0012771 %1016
1016
1007
S 2 (4)
OSO - WSW
>= 10000Stark bewölkt (5500)
Leicht bewölkt (270)
 
DUBLIN AIRPORT
IE 75
Do 19.05. 23:3012771 %1016
1016
1007
S 3 (7)
SSO - SW
>= 10000Stark bewölkt (5500)
Leicht bewölkt (300)
 
DUBLIN AIRPORT
IE 75
Do 19.05. 23:0013767 %1016
1016
1007
S 2 (6)
SO - WSW
>= 10000Stark bewölkt (5200)
Leicht bewölkt (460)
 
DUBLIN AIRPORT
IE 75
Do 19.05. 22:3013767 %1016
1016
1007
S 3 (9)
SSO - SW
>= 10000Stark bewölkt (6100)
Wolkig (4600)
Leicht bewölkt (460)
 
DUBLIN AIRPORT
IE 75
Do 19.05. 22:0013662 %1016
1016
1007
SSW 4 (12)
SSO - WSW
>= 10000Stark bewölkt (6400)
Wolkig (4600)
Leicht bewölkt (670)
 
DUBLIN AIRPORT
IE 75
Do 19.05. 21:3014658 %1016
1016
1007
S 4 (11) - 6 (21)
SSO - SW
>= 10000Stark bewölkt (7300)
Wolkig (4600)
Leicht bewölkt (760)
 
DUBLIN AIRPORT
IE 75
Do 19.05. 21:0014658 %1016
1016
1007
SSW 4 (12)
SSO - WSW
>= 10000Stark bewölkt (4600)
Leicht bewölkt (760)
 
DUBLIN AIRPORT
IE 75
Do 19.05. 20:3015655 %1015
1015
1006
SSW 4 (12)
SSO - WSW
>= 10000Stark bewölkt (7600)
Leicht bewölkt (760)
 
DUBLIN AIRPORT
IE 75
Do 19.05. 20:0015655 %1015
1015
1006
SSW 4 (15)
S - WSW
>= 10000Wolkig (1500)
Leicht bewölkt (760)
 
DUBLIN AIRPORT
IE 75
Do 19.05. 19:3016651 %1015
1015
1006
SSW 4 (14)
SSO - SW
>= 10000Wolkig (1400)
Leicht bewölkt (670)
 
DUBLIN AIRPORT
IE 75
Do 19.05. 19:0016651 %1015
1015
1006
SSW 4 (15)
SSO - SW
>= 10000Wolkig (1400)
Leicht bewölkt (670)
 
DUBLIN AIRPORT
IE 75
Do 19.05. 18:3016651 %1015
1015
1006
SSW 4 (14) - 6 (24)
S - W
>= 10000Wolkig (1400)
Leicht bewölkt (670)
 
DUBLIN AIRPORT
IE 75
Do 19.05. 18:0017752 %1015
1015
1006
SSW 4 (14)
SSO - WSW
>= 10000Wolkig (1400)
Leicht bewölkt (670)
 
DUBLIN AIRPORT
IE 75
Do 19.05. 17:3017752 %1015
1015
1006
SSW 4 (13)
S - WSW
>= 10000Wolkig (1300)
Leicht bewölkt (670)
 
DUBLIN AIRPORT
IE 75
Do 19.05. 17:0017648 %1015
1015
1006
SSW 4 (14) - 6 (24)
SSO - WSW
>= 10000Wolkig (1300)
Leicht bewölkt (610)
 
DUBLIN AIRPORT
IE 75
Do 19.05. 16:3017855 %1015
1015
1006
S 4 (13)
SSO - WSW
>= 10000Wolkig (1300)
Leicht bewölkt (700)
 
DUBLIN AIRPORT
IE 75
Do 19.05. 16:0017648 %1015
1015
1006
SSW 4 (14)
S - W
>= 10000Wolkig (1200)
Leicht bewölkt (670)
 
DUBLIN AIRPORT
IE 75
Do 19.05. 15:3017752 %1015
1015
1006
SSW 4 (14)
SSO - SW
>= 10000Wolkig (1100)
Leicht bewölkt (610)
 
DUBLIN AIRPORT
IE 75
Do 19.05. 15:0016755 %1015
1015
1006
SSW 4 (13) - 6 (26)
S - WSW
>= 10000Stark bewölkt (7600)
Wolkig (1100)
Leicht bewölkt (550)
 
DUBLIN AIRPORT
IE 75
Do 19.05. 14:3017648 %1015
1015
1006
S 4 (12)
SSO - WSW
>= 10000Stark bewölkt (7600)
Wolkig (1100)
Leicht bewölkt (550)
 
DUBLIN AIRPORT
IE 75
Do 19.05. 14:0016859 %1015
1015
1006
SW 3 (9)
S - W
>= 10000Stark bewölkt (7600)
Wolkig (1100)
Leicht bewölkt (550)
 
DUBLIN AIRPORT
IE 75
Do 19.05. 13:3016755 %1015
1015
1006
SW 3 (8)
S - W
>= 10000Stark bewölkt (7600)
Wolkig (1000)
Leicht bewölkt (550)
 
DUBLIN AIRPORT
IE 75
Do 19.05. 13:0015759 %1015
1015
1006
SSW 4 (13)
S - WSW
>= 10000Wolkig (1000)
Leicht bewölkt (550)
 
DUBLIN AIRPORT
IE 75
Do 19.05. 12:3014658 %1016
1016
1007
SW 3 (9)
SO - W
>= 10000Wolkig (1000)
Leicht bewölkt (610)
 
DUBLIN AIRPORT
IE 75
Do 19.05. 12:0014763 %1016
1016
1007
SSW 4 (12)
SSO - W
>= 10000Wolkig (1000)
Leicht bewölkt (610)
 
DUBLIN AIRPORT
IE 75
Do 19.05. 11:3014658 %1016
1016
1007
SW 3 (10)
SSO - W
>= 10000Leicht bewölkt (610) 
DUBLIN AIRPORT
IE 75
Do 19.05. 11:0014658 %1016
1016
1007
SW 3 (8)
S - W
>= 10000Leicht bewölkt (610) 
DUBLIN AIRPORT
IE 75
Do 19.05. 10:3013662 %1015
1015
1006
SW 3 (10)
S - WSW
>= 10000Leicht bewölkt (490) 
DUBLIN AIRPORT
IE 75
Do 19.05. 10:0012771 %1015
1015
1006
SSW 4 (11)
SSO - WSW
>= 10000Leicht bewölkt (490) 
DUBLIN AIRPORT
IE 75
Do 19.05. 09:3012771 %1015
1015
1006
SW 3 (9)
S - W
>= 10000Leicht bewölkt (490) 
DUBLIN AIRPORT
IE 75
Do 19.05. 09:0011671 %1015
1015
1006
SSW 3 (10)
S - WSW
>= 10000Leicht bewölkt (490) 
DUBLIN AIRPORT
IE 75
Do 19.05. 08:3010676 %1015
1015
1006
SSW 3 (8)
SSO - WSW
>= 10000Leicht bewölkt (430) 
DUBLIN AIRPORT
IE 75
Do 19.05. 08:009681 %1015
1015
1006
SSW 2 (6)
SSO - SW
>= 10000Leicht bewölkt (430) 
DUBLIN AIRPORT
IE 75
Do 19.05. 07:308687 %1015
1015
1006
SSW 2 (6)
SO - SW
>= 10000Leicht bewölkt (460) 
DUBLIN AIRPORT
IE 75
Do 19.05. 07:007587 %1014
1014
1005
SSW 2 (6)
S - SW
>= 10000Leicht bewölkt (460) 
DUBLIN AIRPORT
IE 75
Do 19.05. 06:307587 %1014
1014
1005
SSW 3 (7)
S - SW
>= 10000Nicht signifikant 
DUBLIN AIRPORT
IE 75
Do 19.05. 06:008581 %1014
1014
1005
SSW 2 (6)>= 10000Leicht bewölkt (300) 
DUBLIN AIRPORT
IE 75
Do 19.05. 05:308581 %1014
1014
1005
SSW 2 (6)>= 10000Nicht signifikant 
DUBLIN AIRPORT
IE 75
Do 19.05. 05:008581 %1013
1013
1004
SSW 3 (7)
S - WSW
>= 10000Leicht bewölkt (300) 
DUBLIN AIRPORT
IE 75
Do 19.05. 04:308687 %1013
1013
1004
SW 2 (6)>= 10000Leicht bewölkt (300) 
DUBLIN AIRPORT
IE 75
Do 19.05. 04:008687 %1013
1013
1004
SW 3 (7)
S - WSW
>= 10000Leicht bewölkt (300) 
DUBLIN AIRPORT
IE 75
Do 19.05. 03:309787 %1012
1012
1003
SW 3 (7)
S - W
>= 10000Leicht bewölkt (300) 
DUBLIN AIRPORT
IE 75
Do 19.05. 03:009787 %1012
1012
1003
WSW 3 (7)
SSW - W
>= 10000Leicht bewölkt (300) 
DUBLIN AIRPORT
IE 75
Do 19.05. 02:309787 %1012
1012
1003
WSW 3 (8)
SSW - W
>= 10000Leicht bewölkt (300) 
DUBLIN AIRPORT
IE 75
Do 19.05. 02:0010782 %1011
1011
1002
WSW 3 (9)
SSW - ONO
>= 10000Leicht bewölkt (300) 
DUBLIN AIRPORT
IE 75
Do 19.05. 01:3011776 %1011
1011
1002
WSW 3 (10) - 5 (20)
S - W
>= 10000Leicht bewölkt (300) 
DUBLIN AIRPORT
IE 75
Do 19.05. 01:0011882 %1011
1011
1002
SW 4 (12) - 6 (23)
S - WSW
>= 10000Stark bewölkt (1100)
Leicht bewölkt (300)
 
DUBLIN AIRPORT
IE 75
Do 19.05. 00:3011882 %1010
1010
1001
SSW 4 (11)
S - WSW
>= 10000Stark bewölkt (1100)
Leicht bewölkt (300)
 
DUBLIN AIRPORT
IE 75
Do 19.05. 00:0012876 %1010
1010
1001
SSW 4 (11)
S - WSW
>= 10000Leicht bewölkt (300) 
DUBLIN AIRPORT
IE 75
Mi 18.05. 23:3012876 %1010
1010
1001
S 3 (10)
SO - SW
>= 10000Stark bewölkt (1500)
Leicht bewölkt Cb (550)
Leicht bewölkt (300)
 
DUBLIN AIRPORT
IE 75
Mi 18.05. 23:0011882 %1010
1010
1001
S 3 (10)
SSO - SW
>= 10000Leicht bewölkt Cb (550)
Leicht bewölkt (300)
 
DUBLIN AIRPORT
IE 75
Mi 18.05. 22:3012876 %1009
1009
1000
S 4 (11)
SO - SW
>= 10000Wolkig (4000)
Leicht bewölkt Cb (550)
Leicht bewölkt (300)
 
DUBLIN AIRPORT
IE 75
Mi 18.05. 22:0012982 %1009
1009
1000
S 3 (10)
SO - SW
>= 10000Stark bewölkt (2400)
Wolkig Cb (550)
Leicht bewölkt (240)
 
DUBLIN AIRPORT
IE 75
Mi 18.05. 21:3012982 %1009
1009
1000
S 4 (11)
SSO - SSW
>= 10000Stark bewölkt (1800)
Wolkig Cb (550)
Leicht bewölkt (430)
Regen-Schauer (schwach)
DUBLIN AIRPORT
IE 75
Mi 18.05. 21:00121088 %1008
1008
999
S 4 (15) - 6 (26)8000Stark bewölkt (1200)
Wolkig (910)
Wolkig Cb (550)
Regen-Schauer (schwach)
DUBLIN AIRPORT
IE 75
Mi 18.05. 20:3014972 %1008
1008
999
SSO 5 (17) - 7 (28)
SO - SSW
>= 10000
Bald zeitweise: 4000
Stark bewölkt (1300)
Wolkig (790)
Wolkig Cb (550)
Regen-Schauer (schwach)
Bald zeitweise: Regen-Schauer
DUBLIN AIRPORT
IE 75
Mi 18.05. 20:0015863 %1008
1008
999
SSO 5 (17) - 7 (29)>= 10000Stark bewölkt (1800)
Wolkig (940)
Leicht bewölkt Cb (550)
 
DUBLIN AIRPORT
IE 75
Mi 18.05. 19:3015967 %1009
1009
1000
SSO 5 (18)
OSO - S
>= 10000Stark bewölkt (1500)
Wolkig (980)
Leicht bewölkt Cb (550)
 
DUBLIN AIRPORT
IE 75
Mi 18.05. 19:0016963 %1009
1009
1000
SSO 5 (20)
OSO - S
>= 10000Stark bewölkt (2100)
Wolkig (1000)
Leicht bewölkt Cb (550)
 
DUBLIN AIRPORT
IE 75
Mi 18.05. 18:3015967 %1009
1009
1000
SSO 5 (16)
OSO - S
>= 10000Wolkig (880)
Leicht bewölkt Cb (550)
Leicht bewölkt (430)
 
DUBLIN AIRPORT
IE 75
Mi 18.05. 18:0016963 %1010
1010
1001
SSO 5 (18)>= 10000Wolkig (820)
Leicht bewölkt Cb (550)
Leicht bewölkt (370)
 
DUBLIN AIRPORT
IE 75
Mi 18.05. 17:3015967 %1010
1010
1001
SSO 5 (19)>= 10000Wolkig (1000)
Leicht bewölkt Cb (550)
Leicht bewölkt (490)
 
DUBLIN AIRPORT
IE 75
Mi 18.05. 17:0015967 %1010
1010
1001
SSO 6 (21) - 7 (31)
SO - S
>= 10000Wolkig (880)
Leicht bewölkt Cb (550)
Leicht bewölkt (240)
 
DUBLIN AIRPORT
IE 75
Mi 18.05. 16:30151072 %1011
1011
1002
SSO 5 (17) - 7 (29)>= 10000Wolkig (1100)
Leicht bewölkt Cb (550)
Leicht bewölkt (240)
 
DUBLIN AIRPORT
IE 75
Mi 18.05. 16:00161068 %1011
1011
1002
SO 4 (15)
O - SSO
>= 10000Wolkig (1000)
Leicht bewölkt Cb (550)
Leicht bewölkt (240)
 
DUBLIN AIRPORT
IE 75
Mi 18.05. 15:3015967 %1012
1012
1003
SSO 4 (15) - 6 (26)
SO - SSW
>= 10000Wolkig (1000)
Leicht bewölkt Cb (550)
Leicht bewölkt (210)
 
DUBLIN AIRPORT
IE 75
Mi 18.05. 15:00151072 %1012
1012
1003
S 5 (18)
OSO - SSW
>= 10000Wolkig (730)
Leicht bewölkt Cb (550)
Leicht bewölkt (210)
Regen-Schauer (schwach)

Altimeter: Einstellung am Altimeter (Höhenmesser), die Höhe 0 muss auf diesen Luftdruckwert zeigen, damit das Gerät die Stationshöhe richtig anzeigt.

NN: Luftdruck reduziert auf "Normal Null", auf Meereshöhe, dieser von der Temperatur abhängige Wert wird bisweilen unkorrekt einfach als "Luftdruck" bezeichnet. Eigentlich nur eine fiktive Größe, die es erlaubt, Stationen auf unterschiedlichen Höhen miteinander zu vergleichen.

Station: Realer Luftdruck an der Station.